sensor_id;sensor_type;location;lat;lon;timestamp;temperature;humidity
13253;DHT22;6693;54.370;10.132;2022-07-21T00:01:10;26.20;99.90
13253;DHT22;6693;54.370;10.132;2022-07-21T00:03:12;26.00;99.90
13253;DHT22;6693;54.370;10.132;2022-07-21T00:05:14;25.90;99.90
13253;DHT22;6693;54.370;10.132;2022-07-21T00:07:15;25.90;1.00
13253;DHT22;6693;54.370;10.132;2022-07-21T00:09:17;25.90;1.00
13253;DHT22;6693;54.370;10.132;2022-07-21T00:11:20;25.80;1.00
13253;DHT22;6693;54.370;10.132;2022-07-21T00:13:22;26.10;1.00
13253;DHT22;6693;54.370;10.132;2022-07-21T00:15:25;26.00;1.00
13253;DHT22;6693;54.370;10.132;2022-07-21T00:17:27;26.10;1.00
13253;DHT22;6693;54.370;10.132;2022-07-21T00:19:29;26.00;1.00
13253;DHT22;6693;54.370;10.132;2022-07-21T00:21:31;26.00;1.00
13253;DHT22;6693;54.370;10.132;2022-07-21T00:23:32;26.00;1.00
13253;DHT22;6693;54.370;10.132;2022-07-21T00:25:34;25.80;1.00
13253;DHT22;6693;54.370;10.132;2022-07-21T00:27:37;25.80;1.00
13253;DHT22;6693;54.370;10.132;2022-07-21T00:29:39;25.60;1.00
13253;DHT22;6693;54.370;10.132;2022-07-21T00:31:40;25.60;1.00
13253;DHT22;6693;54.370;10.132;2022-07-21T00:33:42;25.70;1.00
13253;DHT22;6693;54.370;10.132;2022-07-21T00:35:44;25.40;1.00
13253;DHT22;6693;54.370;10.132;2022-07-21T00:37:45;25.50;1.00
13253;DHT22;6693;54.370;10.132;2022-07-21T00:39:47;25.60;1.00
13253;DHT22;6693;54.370;10.132;2022-07-21T00:41:49;25.60;1.00
13253;DHT22;6693;54.370;10.132;2022-07-21T00:43:52;25.60;1.00
13253;DHT22;6693;54.370;10.132;2022-07-21T00:45:54;25.60;1.00
13253;DHT22;6693;54.370;10.132;2022-07-21T00:47:56;25.60;1.00
13253;DHT22;6693;54.370;10.132;2022-07-21T00:50:01;25.70;1.00
13253;DHT22;6693;54.370;10.132;2022-07-21T00:52:03;25.70;1.00
13253;DHT22;6693;54.370;10.132;2022-07-21T00:54:04;25.50;1.00
13253;DHT22;6693;54.370;10.132;2022-07-21T00:56:06;25.50;1.00
13253;DHT22;6693;54.370;10.132;2022-07-21T00:58:08;25.50;1.00
13253;DHT22;6693;54.370;10.132;2022-07-21T01:00:15;25.40;1.00
13253;DHT22;6693;54.370;10.132;2022-07-21T01:02:17;25.30;16.20
13253;DHT22;6693;54.370;10.132;2022-07-21T01:04:19;25.40;1.00
13253;DHT22;6693;54.370;10.132;2022-07-21T01:06:22;25.30;1.00
13253;DHT22;6693;54.370;10.132;2022-07-21T01:08:25;25.20;30.10
13253;DHT22;6693;54.370;10.132;2022-07-21T01:10:29;25.20;99.90
13253;DHT22;6693;54.370;10.132;2022-07-21T01:12:31;25.20;99.90
13253;DHT22;6693;54.370;10.132;2022-07-21T01:14:33;25.20;99.90
13253;DHT22;6693;54.370;10.132;2022-07-21T01:16:36;25.30;99.90
13253;DHT22;6693;54.370;10.132;2022-07-21T01:18:38;25.20;99.90
13253;DHT22;6693;54.370;10.132;2022-07-21T01:20:41;25.20;99.90
13253;DHT22;6693;54.370;10.132;2022-07-21T01:22:49;25.20;99.90
13253;DHT22;6693;54.370;10.132;2022-07-21T01:24:51;25.30;99.90
13253;DHT22;6693;54.370;10.132;2022-07-21T01:26:53;25.30;99.90
13253;DHT22;6693;54.370;10.132;2022-07-21T01:28:55;25.30;99.90
13253;DHT22;6693;54.370;10.132;2022-07-21T01:31:00;25.20;99.90
13253;DHT22;6693;54.370;10.132;2022-07-21T01:33:02;25.10;99.90
13253;DHT22;6693;54.370;10.132;2022-07-21T01:35:06;25.10;99.90
13253;DHT22;6693;54.370;10.132;2022-07-21T01:37:08;25.10;1.00
13253;DHT22;6693;54.370;10.132;2022-07-21T01:39:11;25.10;99.90
13253;DHT22;6693;54.370;10.132;2022-07-21T01:41:30;25.10;99.90
13253;DHT22;6693;54.370;10.132;2022-07-21T01:43:33;25.10;99.90
13253;DHT22;6693;54.370;10.132;2022-07-21T01:45:35;25.10;1.00
13253;DHT22;6693;54.370;10.132;2022-07-21T01:47:36;25.10;1.00
13253;DHT22;6693;54.370;10.132;2022-07-21T01:49:38;25.10;99.90
13253;DHT22;6693;54.370;10.132;2022-07-21T01:51:40;25.10;1.00
13253;DHT22;6693;54.370;10.132;2022-07-21T01:53:42;25.20;1.00
13253;DHT22;6693;54.370;10.132;2022-07-21T01:55:45;25.10;1.00
13253;DHT22;6693;54.370;10.132;2022-07-21T01:57:47;25.10;1.00
13253;DHT22;6693;54.370;10.132;2022-07-21T01:59:48;25.10;1.00
13253;DHT22;6693;54.370;10.132;2022-07-21T02:01:50;25.10;1.00
13253;DHT22;6693;54.370;10.132;2022-07-21T02:03:53;25.10;1.00
13253;DHT22;6693;54.370;10.132;2022-07-21T02:06:00;25.20;1.00
13253;DHT22;6693;54.370;10.132;2022-07-21T02:08:02;25.10;1.00
13253;DHT22;6693;54.370;10.132;2022-07-21T02:10:05;25.20;1.00
13253;DHT22;6693;54.370;10.132;2022-07-21T02:12:08;25.10;1.00
13253;DHT22;6693;54.370;10.132;2022-07-21T02:14:10;25.20;1.00
13253;DHT22;6693;54.370;10.132;2022-07-21T02:16:12;25.20;1.00
13253;DHT22;6693;54.370;10.132;2022-07-21T02:18:13;25.20;1.00
13253;DHT22;6693;54.370;10.132;2022-07-21T02:20:15;25.10;1.00
13253;DHT22;6693;54.370;10.132;2022-07-21T02:22:16;25.00;1.00
13253;DHT22;6693;54.370;10.132;2022-07-21T02:24:18;25.00;1.00
13253;DHT22;6693;54.370;10.132;2022-07-21T02:26:20;25.00;1.00
13253;DHT22;6693;54.370;10.132;2022-07-21T02:28:23;25.00;1.00
13253;DHT22;6693;54.370;10.132;2022-07-21T02:30:25;25.00;1.00
13253;DHT22;6693;54.370;10.132;2022-07-21T02:32:26;25.00;1.00
13253;DHT22;6693;54.370;10.132;2022-07-21T02:34:28;25.00;1.00
13253;DHT22;6693;54.370;10.132;2022-07-21T02:36:30;24.90;1.00
13253;DHT22;6693;54.370;10.132;2022-07-21T02:38:31;25.00;1.00
13253;DHT22;6693;54.370;10.132;2022-07-21T02:40:33;24.80;1.00
13253;DHT22;6693;54.370;10.132;2022-07-21T02:42:35;24.70;1.00
13253;DHT22;6693;54.370;10.132;2022-07-21T02:44:39;24.70;1.00
13253;DHT22;6693;54.370;10.132;2022-07-21T02:46:41;24.50;1.00
13253;DHT22;6693;54.370;10.132;2022-07-21T02:48:42;24.60;1.00
13253;DHT22;6693;54.370;10.132;2022-07-21T02:50:44;24.50;1.00
13253;DHT22;6693;54.370;10.132;2022-07-21T02:52:46;24.50;1.00
13253;DHT22;6693;54.370;10.132;2022-07-21T02:54:48;24.30;1.00
13253;DHT22;6693;54.370;10.132;2022-07-21T02:56:49;24.20;1.00
13253;DHT22;6693;54.370;10.132;2022-07-21T02:58:51;24.10;1.00
13253;DHT22;6693;54.370;10.132;2022-07-21T03:00:56;24.10;1.00
13253;DHT22;6693;54.370;10.132;2022-07-21T03:02:58;24.00;1.00
13253;DHT22;6693;54.370;10.132;2022-07-21T03:05:00;24.10;99.90
13253;DHT22;6693;54.370;10.132;2022-07-21T03:07:01;24.10;60.00
13253;DHT22;6693;54.370;10.132;2022-07-21T03:09:03;24.20;1.00
13253;DHT22;6693;54.370;10.132;2022-07-21T03:11:05;24.20;1.00
13253;DHT22;6693;54.370;10.132;2022-07-21T03:13:07;23.60;1.00
13253;DHT22;6693;54.370;10.132;2022-07-21T03:15:09;23.10;1.00
13253;DHT22;6693;54.370;10.132;2022-07-21T03:17:12;22.80;99.90
13253;DHT22;6693;54.370;10.132;2022-07-21T03:19:14;22.70;1.00
13253;DHT22;6693;54.370;10.132;2022-07-21T03:21:16;22.70;99.90
13253;DHT22;6693;54.370;10.132;2022-07-21T03:23:17;22.80;99.90
13253;DHT22;6693;54.370;10.132;2022-07-21T03:25:19;23.00;99.90
13253;DHT22;6693;54.370;10.132;2022-07-21T03:27:21;23.00;99.90
13253;DHT22;6693;54.370;10.132;2022-07-21T03:29:23;22.80;1.00
13253;DHT22;6693;54.370;10.132;2022-07-21T03:31:25;22.70;1.00
13253;DHT22;6693;54.370;10.132;2022-07-21T03:33:28;22.60;99.90
13253;DHT22;6693;54.370;10.132;2022-07-21T03:35:29;22.70;1.00
13253;DHT22;6693;54.370;10.132;2022-07-21T03:37:31;22.80;1.00
13253;DHT22;6693;54.370;10.132;2022-07-21T03:39:33;22.80;1.00
13253;DHT22;6693;54.370;10.132;2022-07-21T03:41:34;22.80;1.00
13253;DHT22;6693;54.370;10.132;2022-07-21T03:43:36;22.50;1.00
13253;DHT22;6693;54.370;10.132;2022-07-21T03:45:37;22.60;99.90
13253;DHT22;6693;54.370;10.132;2022-07-21T03:47:39;22.70;99.90
13253;DHT22;6693;54.370;10.132;2022-07-21T03:49:42;22.60;99.90
13253;DHT22;6693;54.370;10.132;2022-07-21T03:51:44;22.60;1.00
13253;DHT22;6693;54.370;10.132;2022-07-21T03:53:46;22.50;1.00
13253;DHT22;6693;54.370;10.132;2022-07-21T03:55:47;22.60;99.90
13253;DHT22;6693;54.370;10.132;2022-07-21T03:57:51;22.60;99.90
13253;DHT22;6693;54.370;10.132;2022-07-21T03:59:53;22.50;1.00
13253;DHT22;6693;54.370;10.132;2022-07-21T04:01:54;22.50;1.00
13253;DHT22;6693;54.370;10.132;2022-07-21T04:03:56;22.30;1.00
13253;DHT22;6693;54.370;10.132;2022-07-21T04:05:59;22.30;88.30
13253;DHT22;6693;54.370;10.132;2022-07-21T04:08:01;22.10;99.90
13253;DHT22;6693;54.370;10.132;2022-07-21T04:10:03;22.10;99.90
13253;DHT22;6693;54.370;10.132;2022-07-21T04:12:06;22.30;99.90
13253;DHT22;6693;54.370;10.132;2022-07-21T04:14:08;22.30;99.90
13253;DHT22;6693;54.370;10.132;2022-07-21T04:16:09;22.40;99.90
13253;DHT22;6693;54.370;10.132;2022-07-21T04:18:11;22.40;99.90
13253;DHT22;6693;54.370;10.132;2022-07-21T04:20:13;22.40;99.90
13253;DHT22;6693;54.370;10.132;2022-07-21T04:22:17;22.40;99.90
13253;DHT22;6693;54.370;10.132;2022-07-21T04:24:18;22.40;99.90
13253;DHT22;6693;54.370;10.132;2022-07-21T04:26:20;22.40;99.90
13253;DHT22;6693;54.370;10.132;2022-07-21T04:28:22;22.50;99.90
13253;DHT22;6693;54.370;10.132;2022-07-21T04:30:23;22.50;99.90
13253;DHT22;6693;54.370;10.132;2022-07-21T04:32:25;22.70;99.90
13253;DHT22;6693;54.370;10.132;2022-07-21T04:34:27;22.80;99.90
13253;DHT22;6693;54.370;10.132;2022-07-21T04:36:28;22.80;99.90
13253;DHT22;6693;54.370;10.132;2022-07-21T04:38:31;22.70;99.90
13253;DHT22;6693;54.370;10.132;2022-07-21T04:40:33;24.00;99.90
13253;DHT22;6693;54.370;10.132;2022-07-21T04:42:35;23.00;99.90
13253;DHT22;6693;54.370;10.132;2022-07-21T04:44:37;22.70;99.90
13253;DHT22;6693;54.370;10.132;2022-07-21T04:46:39;22.60;99.90
13253;DHT22;6693;54.370;10.132;2022-07-21T04:48:40;22.70;99.90
13253;DHT22;6693;54.370;10.132;2022-07-21T04:50:42;22.90;99.90
13253;DHT22;6693;54.370;10.132;2022-07-21T04:52:44;22.90;99.90
13253;DHT22;6693;54.370;10.132;2022-07-21T04:54:47;23.00;99.90
13253;DHT22;6693;54.370;10.132;2022-07-21T04:56:49;23.20;99.90
13253;DHT22;6693;54.370;10.132;2022-07-21T04:58:50;23.30;99.90
13253;DHT22;6693;54.370;10.132;2022-07-21T05:00:52;23.10;99.90
13253;DHT22;6693;54.370;10.132;2022-07-21T05:02:54;23.00;99.90
13253;DHT22;6693;54.370;10.132;2022-07-21T05:04:56;23.00;99.90
13253;DHT22;6693;54.370;10.132;2022-07-21T05:06:57;23.00;99.90
13253;DHT22;6693;54.370;10.132;2022-07-21T05:09:00;22.90;99.90
13253;DHT22;6693;54.370;10.132;2022-07-21T05:11:03;22.90;99.90
13253;DHT22;6693;54.370;10.132;2022-07-21T05:13:05;23.00;99.90
13253;DHT22;6693;54.370;10.132;2022-07-21T05:15:07;22.90;99.90
13253;DHT22;6693;54.370;10.132;2022-07-21T05:17:11;22.90;99.90
13253;DHT22;6693;54.370;10.132;2022-07-21T05:19:13;22.90;99.90
13253;DHT22;6693;54.370;10.132;2022-07-21T05:21:15;22.80;99.90
13253;DHT22;6693;54.370;10.132;2022-07-21T05:23:16;23.00;99.90
13253;DHT22;6693;54.370;10.132;2022-07-21T05:25:18;23.00;99.90
13253;DHT22;6693;54.370;10.132;2022-07-21T05:27:21;23.00;99.90
13253;DHT22;6693;54.370;10.132;2022-07-21T05:29:22;23.10;99.90
13253;DHT22;6693;54.370;10.132;2022-07-21T05:31:24;23.00;99.90
13253;DHT22;6693;54.370;10.132;2022-07-21T05:33:26;23.10;99.90
13253;DHT22;6693;54.370;10.132;2022-07-21T05:35:28;23.20;99.90
13253;DHT22;6693;54.370;10.132;2022-07-21T05:37:30;23.00;99.90
13253;DHT22;6693;54.370;10.132;2022-07-21T05:39:32;23.10;99.90
13253;DHT22;6693;54.370;10.132;2022-07-21T05:41:33;23.20;99.90
13253;DHT22;6693;54.370;10.132;2022-07-21T05:43:36;23.00;99.90
13253;DHT22;6693;54.370;10.132;2022-07-21T05:45:38;23.20;99.90
13253;DHT22;6693;54.370;10.132;2022-07-21T05:47:40;23.10;99.90
13253;DHT22;6693;54.370;10.132;2022-07-21T05:49:41;23.30;99.90
13253;DHT22;6693;54.370;10.132;2022-07-21T05:51:43;23.40;99.90
13253;DHT22;6693;54.370;10.132;2022-07-21T05:53:45;23.40;99.90
13253;DHT22;6693;54.370;10.132;2022-07-21T05:55:46;23.40;99.90
13253;DHT22;6693;54.370;10.132;2022-07-21T05:57:48;23.50;99.90
13253;DHT22;6693;54.370;10.132;2022-07-21T05:59:51;23.60;99.90
13253;DHT22;6693;54.370;10.132;2022-07-21T06:01:52;23.50;99.90
13253;DHT22;6693;54.370;10.132;2022-07-21T06:03:54;23.60;99.90
13253;DHT22;6693;54.370;10.132;2022-07-21T06:05:56;23.70;99.90
13253;DHT22;6693;54.370;10.132;2022-07-21T06:07:57;23.50;99.90
13253;DHT22;6693;54.370;10.132;2022-07-21T06:10:01;23.80;99.90
13253;DHT22;6693;54.370;10.132;2022-07-21T06:12:03;23.70;99.90
13253;DHT22;6693;54.370;10.132;2022-07-21T06:14:05;23.80;99.90
13253;DHT22;6693;54.370;10.132;2022-07-21T06:16:08;23.80;99.90
13253;DHT22;6693;54.370;10.132;2022-07-21T06:18:10;23.70;99.90
13253;DHT22;6693;54.370;10.132;2022-07-21T06:20:13;23.70;99.90
13253;DHT22;6693;54.370;10.132;2022-07-21T06:22:14;24.00;99.90
13253;DHT22;6693;54.370;10.132;2022-07-21T06:24:16;24.30;99.90
13253;DHT22;6693;54.370;10.132;2022-07-21T06:26:20;24.30;99.90
13253;DHT22;6693;54.370;10.132;2022-07-21T06:28:22;24.50;99.90
13253;DHT22;6693;54.370;10.132;2022-07-21T06:30:24;24.60;99.90
13253;DHT22;6693;54.370;10.132;2022-07-21T06:32:27;24.80;99.90
13253;DHT22;6693;54.370;10.132;2022-07-21T06:34:29;24.80;99.90
13253;DHT22;6693;54.370;10.132;2022-07-21T06:36:31;24.90;99.90
13253;DHT22;6693;54.370;10.132;2022-07-21T06:38:32;25.00;99.90
13253;DHT22;6693;54.370;10.132;2022-07-21T06:40:34;25.10;99.90
13253;DHT22;6693;54.370;10.132;2022-07-21T06:42:36;25.00;99.90
13253;DHT22;6693;54.370;10.132;2022-07-21T06:44:38;24.90;99.90
13253;DHT22;6693;54.370;10.132;2022-07-21T06:46:39;25.00;99.90
13253;DHT22;6693;54.370;10.132;2022-07-21T06:48:42;24.90;99.90
13253;DHT22;6693;54.370;10.132;2022-07-21T06:50:44;24.80;99.90
13253;DHT22;6693;54.370;10.132;2022-07-21T06:52:46;24.70;99.90
13253;DHT22;6693;54.370;10.132;2022-07-21T06:54:47;24.90;99.90
13253;DHT22;6693;54.370;10.132;2022-07-21T06:56:49;24.90;99.90
13253;DHT22;6693;54.370;10.132;2022-07-21T06:58:51;24.90;99.90
13253;DHT22;6693;54.370;10.132;2022-07-21T07:00:53;25.10;99.90
13253;DHT22;6693;54.370;10.132;2022-07-21T07:02:54;25.20;99.90
13253;DHT22;6693;54.370;10.132;2022-07-21T07:04:57;25.30;99.90
13253;DHT22;6693;54.370;10.132;2022-07-21T07:06:59;25.30;99.90
13253;DHT22;6693;54.370;10.132;2022-07-21T07:09:00;25.30;99.90
13253;DHT22;6693;54.370;10.132;2022-07-21T07:11:03;24.80;99.90
13253;DHT22;6693;54.370;10.132;2022-07-21T07:13:04;25.10;99.90
13253;DHT22;6693;54.370;10.132;2022-07-21T07:15:07;25.30;99.90
13253;DHT22;6693;54.370;10.132;2022-07-21T07:17:09;25.30;99.90
13253;DHT22;6693;54.370;10.132;2022-07-21T07:19:11;25.10;99.90
13253;DHT22;6693;54.370;10.132;2022-07-21T07:21:14;25.20;99.90
13253;DHT22;6693;54.370;10.132;2022-07-21T07:23:16;25.30;99.90
13253;DHT22;6693;54.370;10.132;2022-07-21T07:25:17;25.20;99.90
13253;DHT22;6693;54.370;10.132;2022-07-21T07:27:19;25.10;99.90
13253;DHT22;6693;54.370;10.132;2022-07-21T07:29:21;25.10;99.90
13253;DHT22;6693;54.370;10.132;2022-07-21T07:31:23;25.20;99.90
13253;DHT22;6693;54.370;10.132;2022-07-21T07:33:24;24.60;99.90
13253;DHT22;6693;54.370;10.132;2022-07-21T07:35:27;25.30;99.90
13253;DHT22;6693;54.370;10.132;2022-07-21T07:37:30;25.50;1.00
13253;DHT22;6693;54.370;10.132;2022-07-21T07:39:34;25.50;1.00
13253;DHT22;6693;54.370;10.132;2022-07-21T07:41:38;25.50;99.90
13253;DHT22;6693;54.370;10.132;2022-07-21T07:43:40;25.50;1.00
13253;DHT22;6693;54.370;10.132;2022-07-21T07:45:41;25.50;1.00
13253;DHT22;6693;54.370;10.132;2022-07-21T07:47:43;25.60;99.90
13253;DHT22;6693;54.370;10.132;2022-07-21T07:49:45;25.60;99.90
13253;DHT22;6693;54.370;10.132;2022-07-21T07:51:49;25.60;1.00
13253;DHT22;6693;54.370;10.132;2022-07-21T07:53:52;25.90;1.00
13253;DHT22;6693;54.370;10.132;2022-07-21T07:55:54;26.10;1.00
13253;DHT22;6693;54.370;10.132;2022-07-21T07:57:56;26.30;1.00
13253;DHT22;6693;54.370;10.132;2022-07-21T07:59:57;26.50;1.00
13253;DHT22;6693;54.370;10.132;2022-07-21T08:01:59;26.90;1.00
13253;DHT22;6693;54.370;10.132;2022-07-21T08:04:00;27.10;99.90
13253;DHT22;6693;54.370;10.132;2022-07-21T08:06:03;27.20;65.90
13253;DHT22;6693;54.370;10.132;2022-07-21T08:08:06;27.30;1.00
13253;DHT22;6693;54.370;10.132;2022-07-21T08:10:10;27.50;1.00
13253;DHT22;6693;54.370;10.132;2022-07-21T08:12:13;27.50;1.00
13253;DHT22;6693;54.370;10.132;2022-07-21T08:14:15;27.40;99.90
13253;DHT22;6693;54.370;10.132;2022-07-21T08:16:17;27.50;99.90
13253;DHT22;6693;54.370;10.132;2022-07-21T08:18:19;28.00;93.20
13253;DHT22;6693;54.370;10.132;2022-07-21T08:20:21;28.00;1.00
13253;DHT22;6693;54.370;10.132;2022-07-21T08:22:23;27.40;1.00
13253;DHT22;6693;54.370;10.132;2022-07-21T08:24:24;27.30;1.00
13253;DHT22;6693;54.370;10.132;2022-07-21T08:26:27;27.20;1.00
13253;DHT22;6693;54.370;10.132;2022-07-21T08:28:29;27.20;1.00
13253;DHT22;6693;54.370;10.132;2022-07-21T08:30:31;27.20;1.00
13253;DHT22;6693;54.370;10.132;2022-07-21T08:32:33;26.80;99.90
13253;DHT22;6693;54.370;10.132;2022-07-21T08:34:34;27.20;99.90
13253;DHT22;6693;54.370;10.132;2022-07-21T08:36:36;27.20;99.90
13253;DHT22;6693;54.370;10.132;2022-07-21T08:38:38;27.20;99.90
13253;DHT22;6693;54.370;10.132;2022-07-21T08:40:42;27.20;99.90
13253;DHT22;6693;54.370;10.132;2022-07-21T08:42:46;27.10;99.90
13253;DHT22;6693;54.370;10.132;2022-07-21T08:44:48;27.20;95.50
13253;DHT22;6693;54.370;10.132;2022-07-21T08:46:50;27.50;17.60
13253;DHT22;6693;54.370;10.132;2022-07-21T08:48:53;27.30;1.00
13253;DHT22;6693;54.370;10.132;2022-07-21T08:50:55;27.00;1.00
13253;DHT22;6693;54.370;10.132;2022-07-21T08:52:58;26.90;1.00
13253;DHT22;6693;54.370;10.132;2022-07-21T08:55:00;26.90;1.00
13253;DHT22;6693;54.370;10.132;2022-07-21T08:57:02;26.90;1.00
13253;DHT22;6693;54.370;10.132;2022-07-21T08:59:05;27.00;1.00
13253;DHT22;6693;54.370;10.132;2022-07-21T09:01:07;27.20;1.00
13253;DHT22;6693;54.370;10.132;2022-07-21T09:03:14;27.30;1.00
13253;DHT22;6693;54.370;10.132;2022-07-21T09:05:16;27.20;1.00
13253;DHT22;6693;54.370;10.132;2022-07-21T09:07:18;27.00;1.00
13253;DHT22;6693;54.370;10.132;2022-07-21T09:09:21;27.00;1.00
13253;DHT22;6693;54.370;10.132;2022-07-21T09:11:25;27.10;1.00
13253;DHT22;6693;54.370;10.132;2022-07-21T09:13:27;26.90;1.00
13253;DHT22;6693;54.370;10.132;2022-07-21T09:15:30;26.70;1.00
13253;DHT22;6693;54.370;10.132;2022-07-21T09:17:32;26.50;1.00
13253;DHT22;6693;54.370;10.132;2022-07-21T09:19:35;26.30;1.00
13253;DHT22;6693;54.370;10.132;2022-07-21T09:21:39;26.50;1.00
13253;DHT22;6693;54.370;10.132;2022-07-21T09:23:41;26.30;1.00
13253;DHT22;6693;54.370;10.132;2022-07-21T09:25:45;26.20;1.00
13253;DHT22;6693;54.370;10.132;2022-07-21T09:27:47;26.10;1.00
13253;DHT22;6693;54.370;10.132;2022-07-21T09:29:50;25.90;1.00
13253;DHT22;6693;54.370;10.132;2022-07-21T09:31:54;25.90;1.00
13253;DHT22;6693;54.370;10.132;2022-07-21T09:33:56;25.90;99.90
13253;DHT22;6693;54.370;10.132;2022-07-21T09:36:03;25.90;32.80
13253;DHT22;6693;54.370;10.132;2022-07-21T09:38:11;25.90;99.90
13253;DHT22;6693;54.370;10.132;2022-07-21T09:40:14;25.90;99.90
13253;DHT22;6693;54.370;10.132;2022-07-21T09:42:24;26.20;99.90
13253;DHT22;6693;54.370;10.132;2022-07-21T09:44:30;25.90;1.00
13253;DHT22;6693;54.370;10.132;2022-07-21T09:46:32;25.50;1.00
13253;DHT22;6693;54.370;10.132;2022-07-21T09:48:36;25.40;9.00
13253;DHT22;6693;54.370;10.132;2022-07-21T09:50:38;25.70;1.00
13253;DHT22;6693;54.370;10.132;2022-07-21T09:52:41;25.80;1.00
13253;DHT22;6693;54.370;10.132;2022-07-21T09:54:43;25.40;99.90
13253;DHT22;6693;54.370;10.132;2022-07-21T09:56:45;25.30;1.00
13253;DHT22;6693;54.370;10.132;2022-07-21T09:58:49;25.60;99.90
13253;DHT22;6693;54.370;10.132;2022-07-21T10:00:51;25.80;1.00
13253;DHT22;6693;54.370;10.132;2022-07-21T10:02:54;26.20;99.90
13253;DHT22;6693;54.370;10.132;2022-07-21T10:05:00;26.60;99.90
13253;DHT22;6693;54.370;10.132;2022-07-21T10:07:02;27.00;1.00
13253;DHT22;6693;54.370;10.132;2022-07-21T10:09:05;27.20;1.00
13253;DHT22;6693;54.370;10.132;2022-07-21T10:11:08;27.00;1.00
13253;DHT22;6693;54.370;10.132;2022-07-21T10:13:09;27.00;1.00
13253;DHT22;6693;54.370;10.132;2022-07-21T10:15:11;27.00;1.00
13253;DHT22;6693;54.370;10.132;2022-07-21T10:17:14;27.10;1.00
13253;DHT22;6693;54.370;10.132;2022-07-21T10:19:20;27.20;1.00
13253;DHT22;6693;54.370;10.132;2022-07-21T10:21:35;27.90;1.00
13253;DHT22;6693;54.370;10.132;2022-07-21T10:23:39;28.20;99.90
13253;DHT22;6693;54.370;10.132;2022-07-21T10:25:42;28.30;46.20
13253;DHT22;6693;54.370;10.132;2022-07-21T10:28:14;27.90;1.00
13253;DHT22;6693;54.370;10.132;2022-07-21T10:30:36;27.70;1.00
13253;DHT22;6693;54.370;10.132;2022-07-21T10:32:48;27.90;1.00
13253;DHT22;6693;54.370;10.132;2022-07-21T10:34:50;27.90;1.00
13253;DHT22;6693;54.370;10.132;2022-07-21T10:36:53;27.80;1.00
13253;DHT22;6693;54.370;10.132;2022-07-21T10:39:12;27.80;1.00
13253;DHT22;6693;54.370;10.132;2022-07-21T10:41:36;27.60;1.00
13253;DHT22;6693;54.370;10.132;2022-07-21T10:43:40;27.80;1.00
13253;DHT22;6693;54.370;10.132;2022-07-21T10:45:43;27.80;1.00
13253;DHT22;6693;54.370;10.132;2022-07-21T10:47:44;27.70;1.00
13253;DHT22;6693;54.370;10.132;2022-07-21T10:49:54;27.60;1.00
13253;DHT22;6693;54.370;10.132;2022-07-21T10:51:58;27.40;1.00
13253;DHT22;6693;54.370;10.132;2022-07-21T10:54:20;27.00;1.00
13253;DHT22;6693;54.370;10.132;2022-07-21T10:56:26;27.20;1.00
13253;DHT22;6693;54.370;10.132;2022-07-21T10:58:29;27.40;1.00
13253;DHT22;6693;54.370;10.132;2022-07-21T11:00:34;27.50;1.00
13253;DHT22;6693;54.370;10.132;2022-07-21T11:02:37;27.50;1.00
13253;DHT22;6693;54.370;10.132;2022-07-21T11:05:03;27.30;1.00
13253;DHT22;6693;54.370;10.132;2022-07-21T11:07:06;27.60;99.90
13253;DHT22;6693;54.370;10.132;2022-07-21T11:09:11;27.50;99.90
13253;DHT22;6693;54.370;10.132;2022-07-21T11:11:14;27.20;99.90
13253;DHT22;6693;54.370;10.132;2022-07-21T11:13:17;27.30;99.90
13253;DHT22;6693;54.370;10.132;2022-07-21T11:15:44;27.30;99.90
13253;DHT22;6693;54.370;10.132;2022-07-21T11:17:46;27.60;99.90
13253;DHT22;6693;54.370;10.132;2022-07-21T11:19:48;28.00;99.90
13253;DHT22;6693;54.370;10.132;2022-07-21T11:21:51;28.00;99.90
13253;DHT22;6693;54.370;10.132;2022-07-21T11:23:54;28.30;99.90
13253;DHT22;6693;54.370;10.132;2022-07-21T11:25:56;28.40;99.90
13253;DHT22;6693;54.370;10.132;2022-07-21T11:27:57;28.30;73.80
13253;DHT22;6693;54.370;10.132;2022-07-21T11:30:02;28.40;18.10
13253;DHT22;6693;54.370;10.132;2022-07-21T11:32:05;28.50;47.90
13253;DHT22;6693;54.370;10.132;2022-07-21T11:34:08;28.80;1.00
13253;DHT22;6693;54.370;10.132;2022-07-21T11:36:21;29.10;1.00
13253;DHT22;6693;54.370;10.132;2022-07-21T11:38:23;29.30;1.00
13253;DHT22;6693;54.370;10.132;2022-07-21T11:40:28;29.20;1.00
13253;DHT22;6693;54.370;10.132;2022-07-21T11:42:30;29.10;1.00
13253;DHT22;6693;54.370;10.132;2022-07-21T11:44:32;29.20;1.00
13253;DHT22;6693;54.370;10.132;2022-07-21T11:46:48;29.10;1.00
13253;DHT22;6693;54.370;10.132;2022-07-21T11:49:01;28.70;1.00
13253;DHT22;6693;54.370;10.132;2022-07-21T11:51:04;29.00;1.00
13253;DHT22;6693;54.370;10.132;2022-07-21T11:53:05;29.00;1.00
13253;DHT22;6693;54.370;10.132;2022-07-21T11:55:09;29.10;1.00
13253;DHT22;6693;54.370;10.132;2022-07-21T11:57:15;29.70;1.00
13253;DHT22;6693;54.370;10.132;2022-07-21T11:59:17;29.20;1.00
13253;DHT22;6693;54.370;10.132;2022-07-21T12:01:18;28.70;1.00
13253;DHT22;6693;54.370;10.132;2022-07-21T12:03:21;28.40;1.00
13253;DHT22;6693;54.370;10.132;2022-07-21T12:05:23;28.30;1.00
13253;DHT22;6693;54.370;10.132;2022-07-21T12:07:27;28.40;1.00
13253;DHT22;6693;54.370;10.132;2022-07-21T12:09:29;28.30;1.00
13253;DHT22;6693;54.370;10.132;2022-07-21T12:11:35;28.10;1.00
13253;DHT22;6693;54.370;10.132;2022-07-21T12:13:55;28.10;1.00
13253;DHT22;6693;54.370;10.132;2022-07-21T12:15:57;27.90;1.00
13253;DHT22;6693;54.370;10.132;2022-07-21T12:18:00;27.80;1.00
13253;DHT22;6693;54.370;10.132;2022-07-21T12:20:04;27.90;1.00
13253;DHT22;6693;54.370;10.132;2022-07-21T12:22:06;28.30;1.00
13253;DHT22;6693;54.370;10.132;2022-07-21T12:24:07;28.30;1.00
13253;DHT22;6693;54.370;10.132;2022-07-21T12:26:20;28.20;1.00
13253;DHT22;6693;54.370;10.132;2022-07-21T12:28:43;28.60;1.00
13253;DHT22;6693;54.370;10.132;2022-07-21T12:30:50;28.70;1.00
13253;DHT22;6693;54.370;10.132;2022-07-21T12:32:52;28.70;1.00
13253;DHT22;6693;54.370;10.132;2022-07-21T12:34:53;28.60;1.00
13253;DHT22;6693;54.370;10.132;2022-07-21T12:36:55;28.60;1.00
13253;DHT22;6693;54.370;10.132;2022-07-21T12:39:13;28.10;1.00
13253;DHT22;6693;54.370;10.132;2022-07-21T12:41:43;27.80;1.00
13253;DHT22;6693;54.370;10.132;2022-07-21T12:43:53;27.50;1.00
13253;DHT22;6693;54.370;10.132;2022-07-21T12:45:58;27.60;73.80
13253;DHT22;6693;54.370;10.132;2022-07-21T12:48:07;27.50;99.90
13253;DHT22;6693;54.370;10.132;2022-07-21T12:50:14;27.50;99.90
13253;DHT22;6693;54.370;10.132;2022-07-21T12:52:17;27.40;99.90
13253;DHT22;6693;54.370;10.132;2022-07-21T12:54:18;27.30;99.90
13253;DHT22;6693;54.370;10.132;2022-07-21T12:56:22;26.90;99.90
13253;DHT22;6693;54.370;10.132;2022-07-21T12:58:23;27.10;1.00
13253;DHT22;6693;54.370;10.132;2022-07-21T13:00:25;26.90;1.00
13253;DHT22;6693;54.370;10.132;2022-07-21T13:02:28;26.90;1.00
13253;DHT22;6693;54.370;10.132;2022-07-21T13:04:30;26.80;1.00